createdAt,value
2019-03-03T00:00:10.362Z,7.76
2019-03-03T00:02:58.607Z,7.70
2019-03-03T00:05:47.068Z,7.65
2019-03-03T00:08:35.883Z,7.69
2019-03-03T00:11:23.753Z,7.73
2019-03-03T00:14:12.150Z,7.70
2019-03-03T00:17:00.763Z,7.66
2019-03-03T00:19:49.074Z,7.64
2019-03-03T00:22:37.922Z,7.66
2019-03-03T00:25:26.749Z,7.68
2019-03-03T00:28:14.946Z,7.66
2019-03-03T00:31:03.175Z,7.65
2019-03-03T00:33:51.794Z,7.66
2019-03-03T00:37:18.382Z,7.63
2019-03-03T00:40:24.186Z,7.67
2019-03-03T00:43:21.788Z,7.73
2019-03-03T00:46:42.114Z,7.76
2019-03-03T00:50:01.310Z,7.76
2019-03-03T00:53:11.258Z,7.72
2019-03-03T00:56:33.985Z,7.74
2019-03-03T00:59:27.585Z,7.76
2019-03-03T01:02:38.671Z,7.78
2019-03-03T01:05:46.739Z,7.78
2019-03-03T01:08:59.889Z,7.80
2019-03-03T01:12:01.065Z,7.80
2019-03-03T01:15:12.299Z,7.83
2019-03-03T01:18:23.348Z,7.83
2019-03-03T01:21:31.195Z,7.88
2019-03-03T01:24:37.562Z,7.90
2019-03-03T01:27:27.341Z,7.87
2019-03-03T01:30:15.989Z,7.89
2019-03-03T01:33:04.442Z,7.91
2019-03-03T01:35:52.900Z,7.90
2019-03-03T01:38:41.481Z,7.91
2019-03-03T01:41:29.803Z,7.92
2019-03-03T01:44:18.511Z,7.90
2019-03-03T01:47:07.816Z,7.86
2019-03-03T01:49:56.730Z,7.84
2019-03-03T01:52:45.264Z,7.88
2019-03-03T01:55:33.618Z,7.85
2019-03-03T01:58:22.053Z,7.89
2019-03-03T02:01:10.767Z,7.90
2019-03-03T02:03:59.587Z,7.88
2019-03-03T02:06:48.219Z,7.90
2019-03-03T02:09:37.306Z,7.93
2019-03-03T02:12:26.241Z,7.90
2019-03-03T02:15:15.857Z,7.90
2019-03-03T02:18:04.086Z,7.88
2019-03-03T02:20:52.645Z,7.85
2019-03-03T02:23:40.541Z,7.85
2019-03-03T02:26:28.841Z,7.90
2019-03-03T02:29:17.134Z,7.94
2019-03-03T02:32:06.906Z,7.97
2019-03-03T02:34:55.026Z,7.94
2019-03-03T02:37:43.825Z,7.90
2019-03-03T02:40:32.207Z,7.93
2019-03-03T02:43:20.873Z,7.96
2019-03-03T02:46:09.155Z,7.93
2019-03-03T02:48:57.060Z,7.95
2019-03-03T02:51:45.466Z,7.89
2019-03-03T02:54:34.180Z,7.90
2019-03-03T02:57:22.479Z,7.93
2019-03-03T03:00:15.186Z,7.90
2019-03-03T03:03:05.046Z,7.94
2019-03-03T03:06:08.034Z,7.96
2019-03-03T03:09:17.792Z,7.99
2019-03-03T03:12:31.054Z,7.95
2019-03-03T03:15:44.790Z,7.96
2019-03-03T03:19:10.116Z,7.96
2019-03-03T03:22:17.676Z,7.96
2019-03-03T03:25:25.024Z,7.96
2019-03-03T03:28:32.012Z,7.96
2019-03-03T03:31:29.997Z,7.95
2019-03-03T03:34:41.140Z,7.99
2019-03-03T03:38:06.678Z,7.96
2019-03-03T03:41:13.633Z,7.93
2019-03-03T03:44:20.296Z,7.97
2019-03-03T03:47:34.360Z,7.94
2019-03-03T03:50:34.215Z,7.97
2019-03-03T03:53:40.547Z,8.00
2019-03-03T03:56:42.117Z,8.01
2019-03-03T03:59:49.960Z,8.01
2019-03-03T04:02:59.739Z,8.01
2019-03-03T04:06:01.796Z,7.96
2019-03-03T04:09:02.087Z,7.95
2019-03-03T04:12:00.341Z,7.96
2019-03-03T04:15:07.797Z,7.99
2019-03-03T04:18:04.630Z,7.96
2019-03-03T04:21:24.643Z,7.91
2019-03-03T04:24:44.417Z,7.97
2019-03-03T04:27:39.320Z,7.97
2019-03-03T04:30:47.213Z,7.91
2019-03-03T04:33:57.885Z,7.85
2019-03-03T04:37:04.654Z,7.88
2019-03-03T04:39:59.877Z,7.86
2019-03-03T04:42:54.905Z,7.86
2019-03-03T04:46:08.415Z,7.87
2019-03-03T04:49:25.482Z,7.87
2019-03-03T04:52:29.433Z,7.92
2019-03-03T04:55:36.449Z,7.90
2019-03-03T04:58:44.151Z,7.89
2019-03-03T05:01:51.930Z,7.86
2019-03-03T05:05:08.626Z,7.81
2019-03-03T05:08:15.809Z,7.82
2019-03-03T05:11:29.763Z,7.81
2019-03-03T05:14:24.357Z,7.77
2019-03-03T05:17:20.158Z,7.77
2019-03-03T05:20:09.154Z,7.76
2019-03-03T05:22:58.076Z,7.77
2019-03-03T05:25:46.732Z,7.81
2019-03-03T05:28:35.665Z,7.82
2019-03-03T05:31:24.750Z,7.83
2019-03-03T05:34:13.311Z,7.78
2019-03-03T05:37:02.127Z,7.81
2019-03-03T05:39:50.922Z,7.83
2019-03-03T05:42:39.169Z,7.81
2019-03-03T05:45:28.325Z,7.80
2019-03-03T05:48:16.763Z,7.70
2019-03-03T05:51:05.177Z,7.72
2019-03-03T05:53:53.509Z,7.65
2019-03-03T05:56:41.768Z,7.66
2019-03-03T05:59:30.352Z,7.68
2019-03-03T06:02:19.225Z,7.69
2019-03-03T06:05:07.640Z,7.64
2019-03-03T06:07:57.841Z,7.60
2019-03-03T06:10:50.338Z,7.64
2019-03-03T06:13:38.833Z,7.57
2019-03-03T06:16:27.910Z,7.61
2019-03-03T06:19:16.669Z,7.58
2019-03-03T06:22:05.705Z,7.57
2019-03-03T06:24:55.744Z,7.60
2019-03-03T06:27:44.089Z,7.52
2019-03-03T06:30:32.267Z,7.50
2019-03-03T06:33:21.310Z,7.42
2019-03-03T06:36:10.169Z,7.41
2019-03-03T06:38:58.478Z,7.43
2019-03-03T06:41:46.568Z,7.42
2019-03-03T06:44:35.241Z,7.48
2019-03-03T06:47:24.408Z,7.53
2019-03-03T06:50:13.786Z,7.59
2019-03-03T06:53:02.466Z,7.67
2019-03-03T06:55:50.768Z,7.74
2019-03-03T06:58:41.249Z,7.75
2019-03-03T07:01:29.535Z,7.81
2019-03-03T07:04:18.313Z,7.82
2019-03-03T07:07:07.102Z,7.87
2019-03-03T07:09:56.126Z,7.95
2019-03-03T07:12:45.068Z,8.01
2019-03-03T07:15:33.764Z,8.10
2019-03-03T07:18:22.198Z,8.19
2019-03-03T07:21:10.663Z,8.21
2019-03-03T07:23:59.526Z,8.24
2019-03-03T07:26:48.089Z,8.30
2019-03-03T07:29:37.226Z,8.38
2019-03-03T07:32:25.770Z,8.44
2019-03-03T07:35:13.932Z,8.49
2019-03-03T07:38:02.201Z,8.56
2019-03-03T07:40:50.743Z,8.59
2019-03-03T07:43:39.234Z,8.66
2019-03-03T07:46:27.826Z,8.71
2019-03-03T07:49:16.166Z,8.73
2019-03-03T07:52:05.290Z,8.85
2019-03-03T07:54:53.926Z,8.94
2019-03-03T07:57:42.729Z,9.00
2019-03-03T08:00:31.362Z,9.05
2019-03-03T08:03:20.444Z,9.12
2019-03-03T08:06:09.628Z,9.14
2019-03-03T08:08:57.910Z,9.21
2019-03-03T08:11:46.685Z,9.23
2019-03-03T08:14:35.804Z,9.23
2019-03-03T08:17:25.192Z,9.22
2019-03-03T08:20:14.542Z,9.25
2019-03-03T08:23:03.416Z,9.32
2019-03-03T08:25:51.304Z,9.41
2019-03-03T08:28:41.236Z,9.43
2019-03-03T08:31:29.918Z,9.44
2019-03-03T08:34:18.175Z,9.49
2019-03-03T08:37:06.524Z,9.55
2019-03-03T08:39:55.144Z,9.59
2019-03-03T08:43:11.601Z,9.61
2019-03-03T08:46:14.906Z,9.68
2019-03-03T08:49:28.458Z,9.79
2019-03-03T08:52:22.325Z,9.86
2019-03-03T08:55:29.503Z,9.90
2019-03-03T08:58:25.658Z,9.95
2019-03-03T09:01:49.161Z,10.06
2019-03-03T09:04:52.025Z,10.23
2019-03-03T09:07:58.095Z,10.39
2019-03-03T09:11:04.900Z,10.54
2019-03-03T09:14:24.329Z,10.62
2019-03-03T09:17:44.110Z,10.65
2019-03-03T09:20:51.891Z,10.70
2019-03-03T09:23:51.637Z,10.79
2019-03-03T09:27:10.689Z,10.85
2019-03-03T09:30:17.845Z,10.95
2019-03-03T09:33:23.968Z,11.04
2019-03-03T09:36:44.046Z,11.12
2019-03-03T09:39:43.860Z,11.20
2019-03-03T09:42:44.292Z,11.31
2019-03-03T09:45:50.721Z,11.41
2019-03-03T09:48:55.702Z,11.51
2019-03-03T09:52:20.482Z,11.57
2019-03-03T09:55:45.777Z,11.62
2019-03-03T09:58:52.319Z,11.72
2019-03-03T10:01:59.577Z,11.82
2019-03-03T10:05:01.842Z,11.89
2019-03-03T10:08:18.758Z,11.99
2019-03-03T10:11:25.579Z,12.12
2019-03-03T10:14:32.562Z,12.27
2019-03-03T10:17:42.960Z,12.40
2019-03-03T10:20:49.023Z,12.48
2019-03-03T10:23:59.916Z,12.59
2019-03-03T10:27:06.854Z,12.64
2019-03-03T10:30:20.038Z,12.71
2019-03-03T10:33:33.801Z,12.72
2019-03-03T10:36:40.507Z,12.88
2019-03-03T10:39:38.367Z,12.95
2019-03-03T10:42:36.095Z,12.99
2019-03-03T10:45:42.479Z,12.99
2019-03-03T10:48:52.264Z,13.10
2019-03-03T10:52:03.361Z,13.19
2019-03-03T10:54:58.095Z,13.27
2019-03-03T10:57:58.153Z,13.33
2019-03-03T11:01:19.079Z,13.49
2019-03-03T11:04:41.948Z,13.51
2019-03-03T11:07:55.945Z,13.78
2019-03-03T11:11:08.898Z,13.72
2019-03-03T11:14:18.212Z,13.90
2019-03-03T11:17:18.895Z,13.95
2019-03-03T11:20:25.840Z,13.87
2019-03-03T11:23:23.683Z,13.77
2019-03-03T11:26:33.473Z,13.52
2019-03-03T11:29:50.561Z,13.39
2019-03-03T11:33:06.752Z,13.49
2019-03-03T11:36:16.780Z,13.39
2019-03-03T11:39:25.030Z,13.25
2019-03-03T11:42:17.993Z,13.45
2019-03-03T11:45:32.026Z,13.70
2019-03-03T11:48:26.528Z,13.68
2019-03-03T11:51:44.005Z,13.78
2019-03-03T11:54:41.647Z,13.94
2019-03-03T11:57:39.304Z,14.12
2019-03-03T12:00:39.117Z,14.17
2019-03-03T12:03:56.350Z,13.98
2019-03-03T12:07:07.952Z,13.98
2019-03-03T12:10:10.196Z,13.98
2019-03-03T12:13:17.898Z,14.17
2019-03-03T12:16:32.254Z,14.21
2019-03-03T12:19:44.966Z,14.24
2019-03-03T12:22:59.015Z,14.21
2019-03-03T12:25:53.812Z,14.28
2019-03-03T12:29:00.917Z,14.26
2019-03-03T12:32:06.176Z,14.38
2019-03-03T12:35:09.985Z,14.33
2019-03-03T12:38:10.158Z,14.26
2019-03-03T12:41:10.625Z,14.29
2019-03-03T12:44:17.236Z,14.11
2019-03-03T12:47:22.544Z,14.31
2019-03-03T12:50:28.612Z,14.39
2019-03-03T12:53:26.967Z,14.62
2019-03-03T12:56:33.026Z,14.43
2019-03-03T12:59:41.048Z,14.44
2019-03-03T13:03:03.868Z,14.35
2019-03-03T13:06:11.462Z,14.61
2019-03-03T13:09:25.374Z,14.51
2019-03-03T13:12:33.006Z,14.33
2019-03-03T13:15:50.371Z,14.09
2019-03-03T13:19:12.992Z,14.08
2019-03-03T13:22:17.443Z,14.37
2019-03-03T13:25:34.683Z,14.47
2019-03-03T13:28:41.722Z,14.36
2019-03-03T13:31:49.072Z,14.52
2019-03-03T13:34:44.995Z,14.70
2019-03-03T13:38:10.895Z,14.89
2019-03-03T13:41:22.231Z,15.28
2019-03-03T13:44:10.507Z,14.99
2019-03-03T13:46:59.499Z,15.22
2019-03-03T13:49:48.211Z,15.49
2019-03-03T13:52:37.486Z,15.88
2019-03-03T13:55:26.642Z,15.76
2019-03-03T13:58:15.167Z,15.50
2019-03-03T14:01:03.557Z,15.40
2019-03-03T14:03:52.209Z,15.14
2019-03-03T14:06:40.763Z,14.97
2019-03-03T14:09:29.423Z,14.98
2019-03-03T14:12:18.231Z,14.85
2019-03-03T14:15:09.588Z,14.69
2019-03-03T14:17:58.522Z,14.38
2019-03-03T14:20:47.335Z,14.36
2019-03-03T14:23:36.447Z,14.37
2019-03-03T14:26:25.339Z,14.46
2019-03-03T14:29:13.928Z,14.44
2019-03-03T14:32:02.644Z,14.25
2019-03-03T14:34:51.609Z,14.30
2019-03-03T14:37:40.584Z,14.22
2019-03-03T14:40:29.791Z,14.14
2019-03-03T14:43:18.528Z,14.10
2019-03-03T14:46:07.564Z,14.12
2019-03-03T14:48:56.116Z,14.34
2019-03-03T14:51:44.942Z,14.46
2019-03-03T14:54:33.905Z,14.31
2019-03-03T14:57:22.739Z,14.18
2019-03-03T15:00:20.204Z,14.16
2019-03-03T15:03:09.282Z,14.03
2019-03-03T15:05:57.859Z,13.90
2019-03-03T15:08:46.535Z,13.85
2019-03-03T15:11:35.307Z,13.83
2019-03-03T15:14:23.626Z,13.71
2019-03-03T15:17:12.095Z,13.63
2019-03-03T15:20:00.536Z,13.63
2019-03-03T15:22:48.843Z,13.69
2019-03-03T15:25:37.724Z,13.83
2019-03-03T15:28:26.043Z,13.97
2019-03-03T15:31:14.878Z,14.14
2019-03-03T15:34:03.326Z,14.22
2019-03-03T15:36:51.907Z,14.23
2019-03-03T15:39:40.783Z,14.15
2019-03-03T15:42:28.806Z,14.12
2019-03-03T15:45:18.914Z,14.12
2019-03-03T15:48:07.188Z,14.08
2019-03-03T15:50:55.801Z,14.06
2019-03-03T15:53:44.097Z,13.95
2019-03-03T15:56:32.551Z,13.86
2019-03-03T15:59:21.101Z,13.94
2019-03-03T16:02:10.367Z,13.78
2019-03-03T16:04:58.759Z,13.81
2019-03-03T16:07:47.213Z,13.70
2019-03-03T16:10:35.830Z,13.67
2019-03-03T16:13:24.780Z,13.65
2019-03-03T16:16:13.689Z,13.64
2019-03-03T16:19:02.326Z,13.59
2019-03-03T16:21:50.971Z,13.57
2019-03-03T16:24:39.430Z,13.53
2019-03-03T16:27:27.565Z,13.54
2019-03-03T16:30:18.117Z,13.44
2019-03-03T16:33:06.729Z,13.36
2019-03-03T16:35:55.442Z,13.30
2019-03-03T16:38:43.533Z,13.25
2019-03-03T16:41:31.876Z,13.14
2019-03-03T16:44:20.250Z,13.10
2019-03-03T16:47:08.199Z,12.98
2019-03-03T16:49:56.725Z,12.95
2019-03-03T16:52:45.166Z,12.92
2019-03-03T16:55:33.527Z,12.89
2019-03-03T16:58:21.552Z,12.88
2019-03-03T17:01:09.991Z,12.88
2019-03-03T17:03:58.766Z,12.82
2019-03-03T17:06:47.196Z,12.77
2019-03-03T17:09:36.077Z,12.77
2019-03-03T17:12:25.228Z,12.74
2019-03-03T17:15:16.203Z,12.71
2019-03-03T17:18:04.931Z,12.71
2019-03-03T17:20:53.647Z,12.59
2019-03-03T17:23:42.805Z,12.62
2019-03-03T17:26:32.065Z,12.55
2019-03-03T17:29:20.610Z,12.53
2019-03-03T17:32:09.590Z,12.44
2019-03-03T17:34:58.904Z,12.47
2019-03-03T17:37:47.222Z,12.46
2019-03-03T17:40:36.048Z,12.51
2019-03-03T17:43:24.968Z,12.50
2019-03-03T17:46:13.613Z,12.45
2019-03-03T17:49:02.646Z,12.42
2019-03-03T17:51:50.830Z,12.41
2019-03-03T17:54:40.079Z,12.29
2019-03-03T17:57:28.659Z,12.23
2019-03-03T18:00:20.412Z,12.18
2019-03-03T18:03:08.290Z,12.18
2019-03-03T18:05:56.841Z,12.13
2019-03-03T18:08:45.348Z,12.10
2019-03-03T18:11:34.318Z,12.09
2019-03-03T18:14:24.449Z,12.00
2019-03-03T18:17:12.962Z,11.99
2019-03-03T18:20:02.347Z,11.96
2019-03-03T18:22:51.552Z,11.82
2019-03-03T18:25:39.791Z,11.81
2019-03-03T18:28:28.692Z,11.75
2019-03-03T18:31:17.399Z,11.67
2019-03-03T18:34:06.006Z,11.66
2019-03-03T18:36:55.681Z,11.69
2019-03-03T18:39:44.972Z,11.67
2019-03-03T18:42:33.814Z,11.65
2019-03-03T18:45:23.525Z,11.66
2019-03-03T18:48:13.967Z,11.63
2019-03-03T18:51:02.687Z,11.63
2019-03-03T18:53:51.424Z,11.61
2019-03-03T18:56:40.102Z,11.62
2019-03-03T18:59:28.634Z,11.61
2019-03-03T19:02:17.554Z,11.57
2019-03-03T19:05:07.651Z,11.53
2019-03-03T19:07:57.037Z,11.55
2019-03-03T19:10:45.631Z,11.54
2019-03-03T19:13:35.616Z,11.50
2019-03-03T19:16:26.072Z,11.43
2019-03-03T19:19:15.010Z,11.37
2019-03-03T19:22:03.834Z,11.31
2019-03-03T19:24:53.187Z,11.29
2019-03-03T19:27:42.182Z,11.27
2019-03-03T19:30:31.331Z,11.26
2019-03-03T19:33:27.511Z,11.21
2019-03-03T19:36:16.507Z,11.21
2019-03-03T19:39:06.048Z,11.19
2019-03-03T19:41:54.139Z,11.16
2019-03-03T19:44:43.043Z,11.12
2019-03-03T19:47:31.753Z,11.14
2019-03-03T19:50:20.569Z,11.14
2019-03-03T19:53:09.426Z,11.14
2019-03-03T19:55:58.262Z,11.12
2019-03-03T19:58:46.935Z,11.13
2019-03-03T20:01:35.866Z,11.13
2019-03-03T20:04:24.419Z,11.16
2019-03-03T20:07:13.008Z,11.15
2019-03-03T20:10:01.577Z,11.18
2019-03-03T20:12:50.876Z,11.15
2019-03-03T20:15:39.978Z,11.20
2019-03-03T20:18:29.152Z,11.19
2019-03-03T20:21:18.495Z,11.16
2019-03-03T20:24:07.491Z,11.14
2019-03-03T20:26:56.973Z,11.12
2019-03-03T20:29:45.653Z,11.10
2019-03-03T20:32:36.242Z,11.11
2019-03-03T20:35:25.377Z,11.13
2019-03-03T20:38:14.267Z,11.18
2019-03-03T20:41:03.531Z,11.22
2019-03-03T20:43:52.759Z,11.26
2019-03-03T20:46:42.177Z,11.28
2019-03-03T20:49:30.593Z,11.28
2019-03-03T20:52:19.428Z,11.29
2019-03-03T20:55:10.084Z,11.29
2019-03-03T20:57:58.452Z,11.32
2019-03-03T21:00:47.118Z,11.36
2019-03-03T21:03:35.813Z,11.37
2019-03-03T21:06:24.853Z,11.36
2019-03-03T21:09:13.706Z,11.36
2019-03-03T21:12:02.199Z,11.35
2019-03-03T21:14:50.884Z,11.34
2019-03-03T21:17:40.178Z,11.36
2019-03-03T21:20:29.270Z,11.35
2019-03-03T21:23:17.803Z,11.33
2019-03-03T21:26:07.033Z,11.32
2019-03-03T21:28:55.865Z,11.33
2019-03-03T21:31:44.536Z,11.33
2019-03-03T21:34:33.646Z,11.31
2019-03-03T21:37:22.482Z,11.33
2019-03-03T21:40:12.874Z,11.32
2019-03-03T21:43:01.695Z,11.32
2019-03-03T21:45:50.547Z,11.29
2019-03-03T21:48:39.615Z,11.26
2019-03-03T21:51:28.794Z,11.24
2019-03-03T21:54:17.862Z,11.17
2019-03-03T21:57:06.106Z,11.17
2019-03-03T21:59:54.436Z,11.14
2019-03-03T22:02:42.684Z,11.07
2019-03-03T22:05:31.827Z,11.02
2019-03-03T22:08:20.004Z,10.94
2019-03-03T22:11:08.880Z,10.94
2019-03-03T22:13:57.413Z,10.88
2019-03-03T22:16:46.384Z,10.91
2019-03-03T22:19:34.806Z,10.91
2019-03-03T22:22:23.224Z,10.90
2019-03-03T22:25:12.093Z,10.92
2019-03-03T22:28:00.894Z,10.89
2019-03-03T22:30:49.854Z,10.88
2019-03-03T22:33:38.791Z,10.88
2019-03-03T22:36:27.514Z,10.83
2019-03-03T22:39:15.904Z,10.85
2019-03-03T22:42:04.768Z,10.83
2019-03-03T22:44:53.041Z,10.86
2019-03-03T22:47:41.820Z,10.90
2019-03-03T22:50:30.516Z,10.94
2019-03-03T22:53:19.140Z,10.96
2019-03-03T22:56:07.782Z,10.97
2019-03-03T22:58:57.132Z,10.98
2019-03-03T23:01:46.891Z,10.95
2019-03-03T23:05:05.596Z,10.93
2019-03-03T23:08:24.044Z,10.91
2019-03-03T23:11:52.749Z,10.94
2019-03-03T23:15:21.124Z,10.95
2019-03-03T23:18:38.391Z,10.95
2019-03-03T23:21:43.738Z,10.96
2019-03-03T23:25:17.475Z,10.95
2019-03-03T23:28:07.471Z,10.93
2019-03-03T23:30:57.533Z,10.94
2019-03-03T23:33:45.919Z,10.93
2019-03-03T23:36:34.388Z,10.90
2019-03-03T23:39:22.692Z,10.90
2019-03-03T23:42:11.408Z,10.88
2019-03-03T23:45:00.738Z,10.89
2019-03-03T23:47:49.037Z,10.88
2019-03-03T23:50:37.450Z,10.87
2019-03-03T23:53:26.591Z,10.87
2019-03-03T23:56:14.632Z,10.86
2019-03-03T23:59:04.142Z,10.85
